Main page
Satellite images 15-day forecastsClimateMarine weather Cyclones Lightning AirportsFAQ Newsletter About
Weather : Europe Africa North America South America Asia Australia-Oceania Others
Languages Contact

Warsaw, Poland

Fryderyk Chopin

latitude: 52-10N, longitude: 020-58E, elevation: 106 m


METAR: EPWA 311730Z 25004KT CAVOK 06/02 Q1027 NOSIG
TAF: EPWA 311730Z 3118/0118 VRB02KT CAVOK BECMG 3120/3123 3000 BR PROB40 0101/0107 1200 BR BKN004 BECMG 0107/0110 8000 NSW

Time: 18:38 (17:38 UTC)

Current weather observation

The report was made 8 minutes ago, at 17:30 UTC
Wind 4 kt from the West/Southwest
Temperature 6°C
Humidity 75%
Pressure 1027 hPa
Visibility 10 km or more
no clouds below 1500 m and no cumulonimbus

Change units

Forecast

The report was made 8 minutes ago, at 17:30 UTC
Forecast valid from 31 at 18 UTC to 01 at 18 UTC
Wind 2 kt from variable directions
Visibility 10 km or more
no clouds below 1500 m and no cumulonimbus
Becoming
from 31 at 20 UTC to 31 at 23 UTC
Visibility: 3000 m
mist
Probability 40%
from 01 at 01 UTC to 01 at 07 UTC
Visibility: 1200 m
Broken clouds at a height of 400 ft
mist
Becoming
from 01 at 07 UTC to 01 at 10 UTC
Visibility: 8000 m
The information on this site is subject to a disclaimer
Weather : Europe Africa North America South America Asia Australia-Oceania Others
Satellite images 15-day forecastsClimateMarine weather Cyclones Lightning AirportsFAQ Languages Contact Newsletter About